Terminal Aerodrome Forecast
Issued by NWS

Home | Current Version | Previous Version | Text Only | Print | Product List | Glossary On
Versions: 1 2 3 4 5 6 7 8 9 10 11 12 13 14 15
000
FTPQ31 PGUM 242000 RRA
TAFPQ
TAF
PGRO 242024Z 2420/2518 10006KT P6SM VCSH FEW018 SCT120
     FM250000 10011KT P6SM VCSH FEW018 SCT120=

USA.gov is the U.S. government's official web portal to all federal, state and local government web resources and services.